sensor_id;sensor_type;location;lat;lon;timestamp;P1;durP1;ratioP1;P2;durP2;ratioP2
51194;SDS011;37259;49.972;19.850;2023-05-17T00:00:50;9.7;;;8.1;;
51194;SDS011;37259;49.972;19.850;2023-05-17T00:01:50;9.7;;;8.1;;
51194;SDS011;37259;49.972;19.850;2023-05-17T00:02:50;9.7;;;8.1;;
51194;SDS011;37259;49.972;19.850;2023-05-17T00:03:50;9.7;;;8.1;;
51194;SDS011;37259;49.972;19.850;2023-05-17T00:04:50;9.7;;;8.1;;
51194;SDS011;37259;49.972;19.850;2023-05-17T00:05:50;9.7;;;8.1;;
51194;SDS011;37259;49.972;19.850;2023-05-17T00:06:50;9.7;;;8.1;;
51194;SDS011;37259;49.972;19.850;2023-05-17T00:07:50;8.5;;;7.4;;
51194;SDS011;37259;49.972;19.850;2023-05-17T00:08:50;8.5;;;7.4;;
51194;SDS011;37259;49.972;19.850;2023-05-17T00:09:50;8.5;;;7.4;;
51194;SDS011;37259;49.972;19.850;2023-05-17T00:10:50;8.5;;;7.4;;
51194;SDS011;37259;49.972;19.850;2023-05-17T00:11:50;8.5;;;7.4;;
51194;SDS011;37259;49.972;19.850;2023-05-17T00:12:50;8.5;;;7.4;;
51194;SDS011;37259;49.972;19.850;2023-05-17T00:13:50;8.5;;;7.4;;
51194;SDS011;37259;49.972;19.850;2023-05-17T00:14:50;8.5;;;7.4;;
51194;SDS011;37259;49.972;19.850;2023-05-17T00:15:50;8.5;;;7.4;;
51194;SDS011;37259;49.972;19.850;2023-05-17T00:16:50;8.5;;;7.4;;
51194;SDS011;37259;49.972;19.850;2023-05-17T00:17:50;8.5;;;7.4;;
51194;SDS011;37259;49.972;19.850;2023-05-17T00:18:50;8.5;;;7.4;;
51194;SDS011;37259;49.972;19.850;2023-05-17T00:19:50;8.5;;;7.4;;
51194;SDS011;37259;49.972;19.850;2023-05-17T00:20:50;8.5;;;7.4;;
51194;SDS011;37259;49.972;19.850;2023-05-17T00:21:50;8.5;;;7.4;;
51194;SDS011;37259;49.972;19.850;2023-05-17T00:22:50;8.5;;;7.4;;
51194;SDS011;37259;49.972;19.850;2023-05-17T00:23:50;8.5;;;7.4;;
51194;SDS011;37259;49.972;19.850;2023-05-17T00:24:50;8.5;;;7.4;;
51194;SDS011;37259;49.972;19.850;2023-05-17T00:25:50;8.5;;;7.4;;
51194;SDS011;37259;49.972;19.850;2023-05-17T00:26:50;8.5;;;7.4;;
51194;SDS011;37259;49.972;19.850;2023-05-17T00:27:50;8.5;;;7.4;;
51194;SDS011;37259;49.972;19.850;2023-05-17T00:28:50;8.5;;;7.4;;
51194;SDS011;37259;49.972;19.850;2023-05-17T00:29:50;8.5;;;7.4;;
51194;SDS011;37259;49.972;19.850;2023-05-17T00:30:50;8.5;;;7.4;;
51194;SDS011;37259;49.972;19.850;2023-05-17T00:31:50;8.5;;;7.4;;
51194;SDS011;37259;49.972;19.850;2023-05-17T00:32:50;8.5;;;7.4;;
51194;SDS011;37259;49.972;19.850;2023-05-17T00:33:50;8.5;;;7.4;;
51194;SDS011;37259;49.972;19.850;2023-05-17T00:34:50;8.5;;;7.4;;
51194;SDS011;37259;49.972;19.850;2023-05-17T00:35:50;8.5;;;7.4;;
51194;SDS011;37259;49.972;19.850;2023-05-17T00:36:50;8.5;;;7.4;;
51194;SDS011;37259;49.972;19.850;2023-05-17T00:37:50;10.2;;;8;;
51194;SDS011;37259;49.972;19.850;2023-05-17T00:38:50;10.2;;;8;;
51194;SDS011;37259;49.972;19.850;2023-05-17T00:39:50;10.2;;;8;;
51194;SDS011;37259;49.972;19.850;2023-05-17T00:40:50;10.2;;;8;;
51194;SDS011;37259;49.972;19.850;2023-05-17T00:41:50;10.2;;;8;;
51194;SDS011;37259;49.972;19.850;2023-05-17T00:42:50;10.2;;;8;;
51194;SDS011;37259;49.972;19.850;2023-05-17T00:43:50;10.2;;;8;;
51194;SDS011;37259;49.972;19.850;2023-05-17T00:44:50;10.2;;;8;;
51194;SDS011;37259;49.972;19.850;2023-05-17T00:45:50;10.2;;;8;;
51194;SDS011;37259;49.972;19.850;2023-05-17T00:46:50;10.2;;;8;;
51194;SDS011;37259;49.972;19.850;2023-05-17T00:47:50;10.2;;;8;;
51194;SDS011;37259;49.972;19.850;2023-05-17T00:48:50;10.2;;;8;;
51194;SDS011;37259;49.972;19.850;2023-05-17T00:49:50;10.2;;;8;;
51194;SDS011;37259;49.972;19.850;2023-05-17T00:50:50;10.2;;;8;;
51194;SDS011;37259;49.972;19.850;2023-05-17T00:51:50;10.2;;;8;;
51194;SDS011;37259;49.972;19.850;2023-05-17T00:52:50;10.2;;;8;;
51194;SDS011;37259;49.972;19.850;2023-05-17T00:53:50;10.2;;;8;;
51194;SDS011;37259;49.972;19.850;2023-05-17T00:54:50;10.2;;;8;;
51194;SDS011;37259;49.972;19.850;2023-05-17T00:55:50;10.2;;;8;;
51194;SDS011;37259;49.972;19.850;2023-05-17T00:56:50;10.2;;;8;;
51194;SDS011;37259;49.972;19.850;2023-05-17T00:57:50;10.2;;;8;;
51194;SDS011;37259;49.972;19.850;2023-05-17T00:58:50;10.2;;;8;;
51194;SDS011;37259;49.972;19.850;2023-05-17T00:59:50;10.2;;;8;;
51194;SDS011;37259;49.972;19.850;2023-05-17T01:00:50;10.2;;;8;;
51194;SDS011;37259;49.972;19.850;2023-05-17T01:01:50;10.2;;;8;;
51194;SDS011;37259;49.972;19.850;2023-05-17T01:02:50;10.2;;;8;;
51194;SDS011;37259;49.972;19.850;2023-05-17T01:03:50;10.2;;;8;;
51194;SDS011;37259;49.972;19.850;2023-05-17T01:04:50;10.2;;;8;;
51194;SDS011;37259;49.972;19.850;2023-05-17T01:05:50;10.2;;;8;;
51194;SDS011;37259;49.972;19.850;2023-05-17T01:06:50;10.2;;;8;;
51194;SDS011;37259;49.972;19.850;2023-05-17T01:07:50;9.7;;;8.3;;
51194;SDS011;37259;49.972;19.850;2023-05-17T01:08:50;9.7;;;8.3;;
51194;SDS011;37259;49.972;19.850;2023-05-17T01:09:50;9.7;;;8.3;;
51194;SDS011;37259;49.972;19.850;2023-05-17T01:10:52;9.7;;;8.3;;
51194;SDS011;37259;49.972;19.850;2023-05-17T01:11:53;9.7;;;8.3;;
51194;SDS011;37259;49.972;19.850;2023-05-17T01:12:54;9.7;;;8.3;;
51194;SDS011;37259;49.972;19.850;2023-05-17T01:13:51;9.7;;;8.3;;
51194;SDS011;37259;49.972;19.850;2023-05-17T01:14:54;9.7;;;8.3;;
51194;SDS011;37259;49.972;19.850;2023-05-17T01:15:52;9.7;;;8.3;;
51194;SDS011;37259;49.972;19.850;2023-05-17T01:16:53;9.7;;;8.3;;
51194;SDS011;37259;49.972;19.850;2023-05-17T01:17:51;9.7;;;8.3;;
51194;SDS011;37259;49.972;19.850;2023-05-17T01:18:51;9.7;;;8.3;;
51194;SDS011;37259;49.972;19.850;2023-05-17T01:19:53;9.7;;;8.3;;
51194;SDS011;37259;49.972;19.850;2023-05-17T01:20:50;9.7;;;8.3;;
51194;SDS011;37259;49.972;19.850;2023-05-17T01:21:55;9.7;;;8.3;;
51194;SDS011;37259;49.972;19.850;2023-05-17T01:22:51;9.7;;;8.3;;
51194;SDS011;37259;49.972;19.850;2023-05-17T01:23:53;9.7;;;8.3;;
51194;SDS011;37259;49.972;19.850;2023-05-17T01:24:51;9.7;;;8.3;;
51194;SDS011;37259;49.972;19.850;2023-05-17T01:25:52;9.7;;;8.3;;
51194;SDS011;37259;49.972;19.850;2023-05-17T01:26:50;9.7;;;8.3;;
51194;SDS011;37259;49.972;19.850;2023-05-17T01:27:50;9.7;;;8.3;;
51194;SDS011;37259;49.972;19.850;2023-05-17T01:28:51;9.7;;;8.3;;
51194;SDS011;37259;49.972;19.850;2023-05-17T01:29:50;9.7;;;8.3;;
51194;SDS011;37259;49.972;19.850;2023-05-17T01:30:50;9.7;;;8.3;;
51194;SDS011;37259;49.972;19.850;2023-05-17T01:31:50;9.7;;;8.3;;
51194;SDS011;37259;49.972;19.850;2023-05-17T01:32:51;9.7;;;8.3;;
51194;SDS011;37259;49.972;19.850;2023-05-17T01:33:50;9.7;;;8.3;;
51194;SDS011;37259;49.972;19.850;2023-05-17T01:34:50;9.7;;;8.3;;
51194;SDS011;37259;49.972;19.850;2023-05-17T01:35:50;9.7;;;8.3;;
51194;SDS011;37259;49.972;19.850;2023-05-17T01:36:50;9.7;;;8.3;;
51194;SDS011;37259;49.972;19.850;2023-05-17T01:37:50;8.9;;;7.9;;
51194;SDS011;37259;49.972;19.850;2023-05-17T01:38:50;8.9;;;7.9;;
51194;SDS011;37259;49.972;19.850;2023-05-17T01:39:50;8.9;;;7.9;;
51194;SDS011;37259;49.972;19.850;2023-05-17T01:40:51;8.9;;;7.9;;
51194;SDS011;37259;49.972;19.850;2023-05-17T01:41:53;8.9;;;7.9;;
51194;SDS011;37259;49.972;19.850;2023-05-17T01:42:52;8.9;;;7.9;;
51194;SDS011;37259;49.972;19.850;2023-05-17T01:43:53;8.9;;;7.9;;
51194;SDS011;37259;49.972;19.850;2023-05-17T01:44:52;8.9;;;7.9;;
51194;SDS011;37259;49.972;19.850;2023-05-17T01:45:52;8.9;;;7.9;;
51194;SDS011;37259;49.972;19.850;2023-05-17T01:46:51;8.9;;;7.9;;
51194;SDS011;37259;49.972;19.850;2023-05-17T01:47:52;8.9;;;7.9;;
51194;SDS011;37259;49.972;19.850;2023-05-17T01:48:51;8.9;;;7.9;;
51194;SDS011;37259;49.972;19.850;2023-05-17T01:49:51;8.9;;;7.9;;
51194;SDS011;37259;49.972;19.850;2023-05-17T01:50:51;8.9;;;7.9;;
51194;SDS011;37259;49.972;19.850;2023-05-17T01:51:52;8.9;;;7.9;;
51194;SDS011;37259;49.972;19.850;2023-05-17T01:52:51;8.9;;;7.9;;
51194;SDS011;37259;49.972;19.850;2023-05-17T01:53:52;8.9;;;7.9;;
51194;SDS011;37259;49.972;19.850;2023-05-17T01:54:52;8.9;;;7.9;;
51194;SDS011;37259;49.972;19.850;2023-05-17T01:55:51;8.9;;;7.9;;
51194;SDS011;37259;49.972;19.850;2023-05-17T01:56:51;8.9;;;7.9;;
51194;SDS011;37259;49.972;19.850;2023-05-17T01:57:51;8.9;;;7.9;;
51194;SDS011;37259;49.972;19.850;2023-05-17T01:58:50;8.9;;;7.9;;
51194;SDS011;37259;49.972;19.850;2023-05-17T01:59:50;8.9;;;7.9;;
51194;SDS011;37259;49.972;19.850;2023-05-17T02:00:51;8.9;;;7.9;;
51194;SDS011;37259;49.972;19.850;2023-05-17T02:01:51;8.9;;;7.9;;
51194;SDS011;37259;49.972;19.850;2023-05-17T02:02:50;8.9;;;7.9;;
51194;SDS011;37259;49.972;19.850;2023-05-17T02:03:50;8.9;;;7.9;;
51194;SDS011;37259;49.972;19.850;2023-05-17T02:04:50;8.9;;;7.9;;
51194;SDS011;37259;49.972;19.850;2023-05-17T02:05:50;8.9;;;7.9;;
51194;SDS011;37259;49.972;19.850;2023-05-17T02:06:50;8.9;;;7.9;;
51194;SDS011;37259;49.972;19.850;2023-05-17T02:07:50;8.2;;;5.8;;
51194;SDS011;37259;49.972;19.850;2023-05-17T02:08:50;8.2;;;5.8;;
51194;SDS011;37259;49.972;19.850;2023-05-17T02:09:50;8.2;;;5.8;;
51194;SDS011;37259;49.972;19.850;2023-05-17T02:10:50;8.2;;;5.8;;
51194;SDS011;37259;49.972;19.850;2023-05-17T02:11:50;8.2;;;5.8;;
51194;SDS011;37259;49.972;19.850;2023-05-17T02:12:50;8.2;;;5.8;;
51194;SDS011;37259;49.972;19.850;2023-05-17T02:13:50;8.2;;;5.8;;
51194;SDS011;37259;49.972;19.850;2023-05-17T02:14:51;8.2;;;5.8;;
51194;SDS011;37259;49.972;19.850;2023-05-17T02:15:50;8.2;;;5.8;;
51194;SDS011;37259;49.972;19.850;2023-05-17T02:16:50;8.2;;;5.8;;
51194;SDS011;37259;49.972;19.850;2023-05-17T02:17:50;8.2;;;5.8;;
51194;SDS011;37259;49.972;19.850;2023-05-17T02:18:50;8.2;;;5.8;;
51194;SDS011;37259;49.972;19.850;2023-05-17T02:19:50;8.2;;;5.8;;
51194;SDS011;37259;49.972;19.850;2023-05-17T02:20:50;8.2;;;5.8;;
51194;SDS011;37259;49.972;19.850;2023-05-17T02:21:50;8.2;;;5.8;;
51194;SDS011;37259;49.972;19.850;2023-05-17T02:22:50;8.2;;;5.8;;
51194;SDS011;37259;49.972;19.850;2023-05-17T02:23:50;8.2;;;5.8;;
51194;SDS011;37259;49.972;19.850;2023-05-17T02:24:50;8.2;;;5.8;;
51194;SDS011;37259;49.972;19.850;2023-05-17T02:25:50;8.2;;;5.8;;
51194;SDS011;37259;49.972;19.850;2023-05-17T02:26:50;8.2;;;5.8;;
51194;SDS011;37259;49.972;19.850;2023-05-17T02:27:50;8.2;;;5.8;;
51194;SDS011;37259;49.972;19.850;2023-05-17T02:28:50;8.2;;;5.8;;
51194;SDS011;37259;49.972;19.850;2023-05-17T02:29:51;8.2;;;5.8;;
51194;SDS011;37259;49.972;19.850;2023-05-17T02:30:50;8.2;;;5.8;;
51194;SDS011;37259;49.972;19.850;2023-05-17T02:31:50;8.2;;;5.8;;
51194;SDS011;37259;49.972;19.850;2023-05-17T02:32:50;8.2;;;5.8;;
51194;SDS011;37259;49.972;19.850;2023-05-17T02:33:50;8.2;;;5.8;;
51194;SDS011;37259;49.972;19.850;2023-05-17T02:34:50;8.2;;;5.8;;
51194;SDS011;37259;49.972;19.850;2023-05-17T02:35:50;8.2;;;5.8;;
51194;SDS011;37259;49.972;19.850;2023-05-17T02:36:50;8.2;;;5.8;;
51194;SDS011;37259;49.972;19.850;2023-05-17T02:37:50;5.6;;;3.1;;
51194;SDS011;37259;49.972;19.850;2023-05-17T02:38:50;5.6;;;3.1;;
51194;SDS011;37259;49.972;19.850;2023-05-17T02:39:50;5.6;;;3.1;;
51194;SDS011;37259;49.972;19.850;2023-05-17T02:40:50;5.6;;;3.1;;
51194;SDS011;37259;49.972;19.850;2023-05-17T02:41:50;5.6;;;3.1;;
51194;SDS011;37259;49.972;19.850;2023-05-17T02:42:50;5.6;;;3.1;;
51194;SDS011;37259;49.972;19.850;2023-05-17T02:43:50;5.6;;;3.1;;
51194;SDS011;37259;49.972;19.850;2023-05-17T02:44:50;5.6;;;3.1;;
51194;SDS011;37259;49.972;19.850;2023-05-17T02:45:50;5.6;;;3.1;;
51194;SDS011;37259;49.972;19.850;2023-05-17T02:46:50;5.6;;;3.1;;
51194;SDS011;37259;49.972;19.850;2023-05-17T02:47:50;5.6;;;3.1;;
51194;SDS011;37259;49.972;19.850;2023-05-17T02:48:50;5.6;;;3.1;;
51194;SDS011;37259;49.972;19.850;2023-05-17T02:49:50;5.6;;;3.1;;
51194;SDS011;37259;49.972;19.850;2023-05-17T02:50:50;5.6;;;3.1;;
51194;SDS011;37259;49.972;19.850;2023-05-17T02:51:50;5.6;;;3.1;;
51194;SDS011;37259;49.972;19.850;2023-05-17T02:52:50;5.6;;;3.1;;
51194;SDS011;37259;49.972;19.850;2023-05-17T02:53:50;5.6;;;3.1;;
51194;SDS011;37259;49.972;19.850;2023-05-17T02:54:50;5.6;;;3.1;;
51194;SDS011;37259;49.972;19.850;2023-05-17T02:55:50;5.6;;;3.1;;
51194;SDS011;37259;49.972;19.850;2023-05-17T02:56:50;5.6;;;3.1;;
51194;SDS011;37259;49.972;19.850;2023-05-17T02:57:50;5.6;;;3.1;;
51194;SDS011;37259;49.972;19.850;2023-05-17T02:58:50;5.6;;;3.1;;
51194;SDS011;37259;49.972;19.850;2023-05-17T02:59:50;5.6;;;3.1;;
51194;SDS011;37259;49.972;19.850;2023-05-17T03:00:50;5.6;;;3.1;;
51194;SDS011;37259;49.972;19.850;2023-05-17T03:01:50;5.6;;;3.1;;
51194;SDS011;37259;49.972;19.850;2023-05-17T03:02:50;5.6;;;3.1;;
51194;SDS011;37259;49.972;19.850;2023-05-17T03:03:50;5.6;;;3.1;;
51194;SDS011;37259;49.972;19.850;2023-05-17T03:04:50;5.6;;;3.1;;
51194;SDS011;37259;49.972;19.850;2023-05-17T03:05:50;5.6;;;3.1;;
51194;SDS011;37259;49.972;19.850;2023-05-17T03:06:50;5.6;;;3.1;;
51194;SDS011;37259;49.972;19.850;2023-05-17T03:07:50;3.7;;;2.6;;
51194;SDS011;37259;49.972;19.850;2023-05-17T03:08:50;3.7;;;2.6;;
51194;SDS011;37259;49.972;19.850;2023-05-17T03:09:50;3.7;;;2.6;;
51194;SDS011;37259;49.972;19.850;2023-05-17T03:10:50;3.7;;;2.6;;
51194;SDS011;37259;49.972;19.850;2023-05-17T03:11:50;3.7;;;2.6;;
51194;SDS011;37259;49.972;19.850;2023-05-17T03:12:50;3.7;;;2.6;;
51194;SDS011;37259;49.972;19.850;2023-05-17T03:13:50;3.7;;;2.6;;
51194;SDS011;37259;49.972;19.850;2023-05-17T03:14:50;3.7;;;2.6;;
51194;SDS011;37259;49.972;19.850;2023-05-17T03:15:50;3.7;;;2.6;;
51194;SDS011;37259;49.972;19.850;2023-05-17T03:16:50;3.7;;;2.6;;
51194;SDS011;37259;49.972;19.850;2023-05-17T03:17:50;3.7;;;2.6;;
51194;SDS011;37259;49.972;19.850;2023-05-17T03:18:50;3.7;;;2.6;;
51194;SDS011;37259;49.972;19.850;2023-05-17T03:19:51;3.7;;;2.6;;
51194;SDS011;37259;49.972;19.850;2023-05-17T03:20:50;3.7;;;2.6;;
51194;SDS011;37259;49.972;19.850;2023-05-17T03:21:50;3.7;;;2.6;;
51194;SDS011;37259;49.972;19.850;2023-05-17T03:22:50;3.7;;;2.6;;
51194;SDS011;37259;49.972;19.850;2023-05-17T03:23:50;3.7;;;2.6;;
51194;SDS011;37259;49.972;19.850;2023-05-17T03:24:50;3.7;;;2.6;;
51194;SDS011;37259;49.972;19.850;2023-05-17T03:25:50;3.7;;;2.6;;
51194;SDS011;37259;49.972;19.850;2023-05-17T03:26:50;3.7;;;2.6;;
51194;SDS011;37259;49.972;19.850;2023-05-17T03:27:50;3.7;;;2.6;;
51194;SDS011;37259;49.972;19.850;2023-05-17T03:28:50;3.7;;;2.6;;
51194;SDS011;37259;49.972;19.850;2023-05-17T03:29:50;3.7;;;2.6;;
51194;SDS011;37259;49.972;19.850;2023-05-17T03:30:50;3.7;;;2.6;;
51194;SDS011;37259;49.972;19.850;2023-05-17T03:31:50;3.7;;;2.6;;
51194;SDS011;37259;49.972;19.850;2023-05-17T03:32:51;3.7;;;2.6;;
51194;SDS011;37259;49.972;19.850;2023-05-17T03:33:50;3.7;;;2.6;;
51194;SDS011;37259;49.972;19.850;2023-05-17T03:34:50;3.7;;;2.6;;
51194;SDS011;37259;49.972;19.850;2023-05-17T03:35:50;3.7;;;2.6;;
51194;SDS011;37259;49.972;19.850;2023-05-17T03:36:50;3.7;;;2.1;;
51194;SDS011;37259;49.972;19.850;2023-05-17T03:37:50;5.7;;;2.1;;
51194;SDS011;37259;49.972;19.850;2023-05-17T03:38:50;5.7;;;2.1;;
51194;SDS011;37259;49.972;19.850;2023-05-17T03:39:50;5.7;;;2.1;;
51194;SDS011;37259;49.972;19.850;2023-05-17T03:40:50;5.7;;;2.1;;
51194;SDS011;37259;49.972;19.850;2023-05-17T03:41:50;5.7;;;2.1;;
51194;SDS011;37259;49.972;19.850;2023-05-17T03:42:50;5.7;;;2.1;;
51194;SDS011;37259;49.972;19.850;2023-05-17T03:43:50;5.7;;;2.1;;
51194;SDS011;37259;49.972;19.850;2023-05-17T03:44:50;5.7;;;2.1;;
51194;SDS011;37259;49.972;19.850;2023-05-17T03:45:50;5.7;;;2.1;;
51194;SDS011;37259;49.972;19.850;2023-05-17T03:46:50;5.7;;;2.1;;
51194;SDS011;37259;49.972;19.850;2023-05-17T03:47:50;5.7;;;2.1;;
51194;SDS011;37259;49.972;19.850;2023-05-17T03:48:50;5.7;;;2.1;;
51194;SDS011;37259;49.972;19.850;2023-05-17T03:49:50;5.7;;;2.1;;
51194;SDS011;37259;49.972;19.850;2023-05-17T03:50:50;5.7;;;2.1;;
51194;SDS011;37259;49.972;19.850;2023-05-17T03:51:50;5.7;;;2.1;;
51194;SDS011;37259;49.972;19.850;2023-05-17T03:52:50;5.7;;;2.1;;
51194;SDS011;37259;49.972;19.850;2023-05-17T03:53:54;5.7;;;2.1;;
51194;SDS011;37259;49.972;19.850;2023-05-17T03:54:50;5.7;;;2.1;;
51194;SDS011;37259;49.972;19.850;2023-05-17T03:55:50;5.7;;;2.1;;
51194;SDS011;37259;49.972;19.850;2023-05-17T03:56:50;5.7;;;2.1;;
51194;SDS011;37259;49.972;19.850;2023-05-17T03:57:50;5.7;;;2.1;;
51194;SDS011;37259;49.972;19.850;2023-05-17T03:58:50;5.7;;;2.1;;
51194;SDS011;37259;49.972;19.850;2023-05-17T03:59:50;5.7;;;2.1;;
51194;SDS011;37259;49.972;19.850;2023-05-17T04:00:50;5.7;;;2.1;;
51194;SDS011;37259;49.972;19.850;2023-05-17T04:01:50;5.7;;;2.1;;
51194;SDS011;37259;49.972;19.850;2023-05-17T04:02:50;5.7;;;2.1;;
51194;SDS011;37259;49.972;19.850;2023-05-17T04:03:50;5.7;;;2.1;;
51194;SDS011;37259;49.972;19.850;2023-05-17T04:04:51;5.7;;;2.1;;
51194;SDS011;37259;49.972;19.850;2023-05-17T04:05:50;5.7;;;2.1;;
51194;SDS011;37259;49.972;19.850;2023-05-17T04:06:50;5.4;;;2.5;;
51194;SDS011;37259;49.972;19.850;2023-05-17T04:07:50;5.4;;;2.5;;
51194;SDS011;37259;49.972;19.850;2023-05-17T04:08:50;5.4;;;2.5;;
51194;SDS011;37259;49.972;19.850;2023-05-17T04:09:50;5.4;;;2.5;;
51194;SDS011;37259;49.972;19.850;2023-05-17T04:10:50;5.4;;;2.5;;
51194;SDS011;37259;49.972;19.850;2023-05-17T04:11:50;5.4;;;2.5;;
51194;SDS011;37259;49.972;19.850;2023-05-17T04:12:50;5.4;;;2.5;;
51194;SDS011;37259;49.972;19.850;2023-05-17T04:13:50;5.4;;;2.5;;
51194;SDS011;37259;49.972;19.850;2023-05-17T04:14:50;5.4;;;2.5;;
51194;SDS011;37259;49.972;19.850;2023-05-17T04:15:50;5.4;;;2.5;;
51194;SDS011;37259;49.972;19.850;2023-05-17T04:16:50;5.4;;;2.5;;
51194;SDS011;37259;49.972;19.850;2023-05-17T04:17:50;5.4;;;2.5;;
51194;SDS011;37259;49.972;19.850;2023-05-17T04:18:51;5.4;;;2.5;;
51194;SDS011;37259;49.972;19.850;2023-05-17T04:19:50;5.4;;;2.5;;
51194;SDS011;37259;49.972;19.850;2023-05-17T04:20:50;5.4;;;2.5;;
51194;SDS011;37259;49.972;19.850;2023-05-17T04:21:50;5.4;;;2.5;;
51194;SDS011;37259;49.972;19.850;2023-05-17T04:22:50;5.4;;;2.5;;
51194;SDS011;37259;49.972;19.850;2023-05-17T04:23:50;5.4;;;2.5;;
51194;SDS011;37259;49.972;19.850;2023-05-17T04:24:50;5.4;;;2.5;;
51194;SDS011;37259;49.972;19.850;2023-05-17T04:25:50;5.4;;;2.5;;
51194;SDS011;37259;49.972;19.850;2023-05-17T04:26:50;5.4;;;2.5;;
51194;SDS011;37259;49.972;19.850;2023-05-17T04:27:50;5.4;;;2.5;;
51194;SDS011;37259;49.972;19.850;2023-05-17T04:28:50;5.4;;;2.5;;
51194;SDS011;37259;49.972;19.850;2023-05-17T04:29:50;5.4;;;2.5;;
51194;SDS011;37259;49.972;19.850;2023-05-17T04:30:50;5.4;;;2.5;;
51194;SDS011;37259;49.972;19.850;2023-05-17T04:31:50;5.4;;;2.5;;
51194;SDS011;37259;49.972;19.850;2023-05-17T04:32:50;5.4;;;2.5;;
51194;SDS011;37259;49.972;19.850;2023-05-17T04:33:50;5.4;;;2.5;;
51194;SDS011;37259;49.972;19.850;2023-05-17T04:34:50;5.4;;;2.5;;
51194;SDS011;37259;49.972;19.850;2023-05-17T04:35:52;5.4;;;2.5;;
51194;SDS011;37259;49.972;19.850;2023-05-17T04:36:50;3.8;;;2.4;;
51194;SDS011;37259;49.972;19.850;2023-05-17T04:37:51;3.8;;;2.4;;
51194;SDS011;37259;49.972;19.850;2023-05-17T04:38:50;3.8;;;2.4;;
51194;SDS011;37259;49.972;19.850;2023-05-17T04:39:51;3.8;;;2.4;;
51194;SDS011;37259;49.972;19.850;2023-05-17T04:40:50;3.8;;;2.4;;
51194;SDS011;37259;49.972;19.850;2023-05-17T04:41:50;3.8;;;2.4;;
51194;SDS011;37259;49.972;19.850;2023-05-17T04:42:50;3.8;;;2.4;;
51194;SDS011;37259;49.972;19.850;2023-05-17T04:43:50;3.8;;;2.4;;
51194;SDS011;37259;49.972;19.850;2023-05-17T04:44:50;3.8;;;2.4;;
51194;SDS011;37259;49.972;19.850;2023-05-17T04:45:54;3.8;;;2.4;;
51194;SDS011;37259;49.972;19.850;2023-05-17T04:46:51;3.8;;;2.4;;
51194;SDS011;37259;49.972;19.850;2023-05-17T04:47:50;3.8;;;2.4;;
51194;SDS011;37259;49.972;19.850;2023-05-17T04:48:50;3.8;;;2.4;;
51194;SDS011;37259;49.972;19.850;2023-05-17T04:49:50;3.8;;;2.4;;
51194;SDS011;37259;49.972;19.850;2023-05-17T04:50:50;3.8;;;2.4;;
51194;SDS011;37259;49.972;19.850;2023-05-17T04:51:51;3.8;;;2.4;;
51194;SDS011;37259;49.972;19.850;2023-05-17T04:52:50;3.8;;;2.4;;
51194;SDS011;37259;49.972;19.850;2023-05-17T04:53:50;3.8;;;2.4;;
51194;SDS011;37259;49.972;19.850;2023-05-17T04:54:50;3.8;;;2.4;;
51194;SDS011;37259;49.972;19.850;2023-05-17T04:55:50;3.8;;;2.4;;
51194;SDS011;37259;49.972;19.850;2023-05-17T04:56:50;3.8;;;2.4;;
51194;SDS011;37259;49.972;19.850;2023-05-17T04:57:50;3.8;;;2.4;;
51194;SDS011;37259;49.972;19.850;2023-05-17T04:58:50;3.8;;;2.4;;
51194;SDS011;37259;49.972;19.850;2023-05-17T04:59:50;3.8;;;2.4;;
51194;SDS011;37259;49.972;19.850;2023-05-17T05:00:50;3.8;;;2.4;;
51194;SDS011;37259;49.972;19.850;2023-05-17T05:01:50;3.8;;;2.4;;
51194;SDS011;37259;49.972;19.850;2023-05-17T05:02:50;3.8;;;2.4;;
51194;SDS011;37259;49.972;19.850;2023-05-17T05:03:50;3.8;;;2.4;;
51194;SDS011;37259;49.972;19.850;2023-05-17T05:04:50;3.8;;;2.4;;
51194;SDS011;37259;49.972;19.850;2023-05-17T05:05:50;3.8;;;2.4;;
51194;SDS011;37259;49.972;19.850;2023-05-17T05:06:51;4.6;;;2.7;;
51194;SDS011;37259;49.972;19.850;2023-05-17T05:07:50;4.6;;;2.7;;
51194;SDS011;37259;49.972;19.850;2023-05-17T05:08:50;4.6;;;2.7;;
51194;SDS011;37259;49.972;19.850;2023-05-17T05:09:50;4.6;;;2.7;;
51194;SDS011;37259;49.972;19.850;2023-05-17T05:10:50;4.6;;;2.7;;
51194;SDS011;37259;49.972;19.850;2023-05-17T05:11:50;4.6;;;2.7;;
51194;SDS011;37259;49.972;19.850;2023-05-17T05:12:50;4.6;;;2.7;;
51194;SDS011;37259;49.972;19.850;2023-05-17T05:13:50;4.6;;;2.7;;
51194;SDS011;37259;49.972;19.850;2023-05-17T05:14:50;4.6;;;2.7;;
51194;SDS011;37259;49.972;19.850;2023-05-17T05:15:50;4.6;;;2.7;;
51194;SDS011;37259;49.972;19.850;2023-05-17T05:16:50;4.6;;;2.7;;
51194;SDS011;37259;49.972;19.850;2023-05-17T05:17:50;4.6;;;2.7;;
51194;SDS011;37259;49.972;19.850;2023-05-17T05:18:50;4.6;;;2.7;;
51194;SDS011;37259;49.972;19.850;2023-05-17T05:19:50;4.6;;;2.7;;
51194;SDS011;37259;49.972;19.850;2023-05-17T05:20:50;4.6;;;2.7;;
51194;SDS011;37259;49.972;19.850;2023-05-17T05:21:50;4.6;;;2.7;;
51194;SDS011;37259;49.972;19.850;2023-05-17T05:22:50;4.6;;;2.7;;
51194;SDS011;37259;49.972;19.850;2023-05-17T05:23:50;4.6;;;2.7;;
51194;SDS011;37259;49.972;19.850;2023-05-17T05:24:50;4.6;;;2.7;;
51194;SDS011;37259;49.972;19.850;2023-05-17T05:25:51;4.6;;;2.7;;
51194;SDS011;37259;49.972;19.850;2023-05-17T05:26:50;4.6;;;2.7;;
51194;SDS011;37259;49.972;19.850;2023-05-17T05:27:50;4.6;;;2.7;;
51194;SDS011;37259;49.972;19.850;2023-05-17T05:28:50;4.6;;;2.7;;
51194;SDS011;37259;49.972;19.850;2023-05-17T05:29:50;4.6;;;2.7;;
51194;SDS011;37259;49.972;19.850;2023-05-17T05:30:55;4.6;;;2.7;;
51194;SDS011;37259;49.972;19.850;2023-05-17T05:31:50;4.6;;;2.7;;
51194;SDS011;37259;49.972;19.850;2023-05-17T05:32:50;4.6;;;2.7;;
51194;SDS011;37259;49.972;19.850;2023-05-17T05:33:50;4.6;;;2.7;;
51194;SDS011;37259;49.972;19.850;2023-05-17T05:34:50;4.6;;;2.7;;
51194;SDS011;37259;49.972;19.850;2023-05-17T05:35:51;4.6;;;2.7;;
51194;SDS011;37259;49.972;19.850;2023-05-17T05:36:51;4.2;;;2.1;;
51194;SDS011;37259;49.972;19.850;2023-05-17T05:37:50;4.2;;;2.1;;
51194;SDS011;37259;49.972;19.850;2023-05-17T05:38:50;4.2;;;2.1;;
51194;SDS011;37259;49.972;19.850;2023-05-17T05:39:50;4.2;;;2.1;;
51194;SDS011;37259;49.972;19.850;2023-05-17T05:40:50;4.2;;;2.1;;
51194;SDS011;37259;49.972;19.850;2023-05-17T05:41:50;4.2;;;2.1;;
51194;SDS011;37259;49.972;19.850;2023-05-17T05:42:50;4.2;;;2.1;;
51194;SDS011;37259;49.972;19.850;2023-05-17T05:43:50;4.2;;;2.1;;
51194;SDS011;37259;49.972;19.850;2023-05-17T05:44:50;4.2;;;2.1;;
51194;SDS011;37259;49.972;19.850;2023-05-17T05:45:50;4.2;;;2.1;;
51194;SDS011;37259;49.972;19.850;2023-05-17T05:46:50;4.2;;;2.1;;
51194;SDS011;37259;49.972;19.850;2023-05-17T05:47:50;4.2;;;2.1;;
51194;SDS011;37259;49.972;19.850;2023-05-17T05:48:50;4.2;;;2.1;;
51194;SDS011;37259;49.972;19.850;2023-05-17T05:49:50;4.2;;;2.1;;
51194;SDS011;37259;49.972;19.850;2023-05-17T05:50:50;4.2;;;2.1;;
51194;SDS011;37259;49.972;19.850;2023-05-17T05:51:50;4.2;;;2.1;;
51194;SDS011;37259;49.972;19.850;2023-05-17T05:52:50;4.2;;;2.1;;
51194;SDS011;37259;49.972;19.850;2023-05-17T05:53:50;4.2;;;2.1;;
51194;SDS011;37259;49.972;19.850;2023-05-17T05:54:50;4.2;;;2.1;;
51194;SDS011;37259;49.972;19.850;2023-05-17T05:55:51;4.2;;;2.1;;
51194;SDS011;37259;49.972;19.850;2023-05-17T05:56:50;4.2;;;2.1;;
51194;SDS011;37259;49.972;19.850;2023-05-17T05:57:50;4.2;;;2.1;;
51194;SDS011;37259;49.972;19.850;2023-05-17T05:58:50;4.2;;;2.1;;
51194;SDS011;37259;49.972;19.850;2023-05-17T05:59:50;4.2;;;2.1;;
51194;SDS011;37259;49.972;19.850;2023-05-17T06:00:50;4.2;;;2.1;;
51194;SDS011;37259;49.972;19.850;2023-05-17T06:01:50;4.2;;;2.1;;
51194;SDS011;37259;49.972;19.850;2023-05-17T06:02:51;4.2;;;2.1;;
51194;SDS011;37259;49.972;19.850;2023-05-17T06:03:50;4.2;;;2.1;;
51194;SDS011;37259;49.972;19.850;2023-05-17T06:04:50;4.2;;;2.1;;
51194;SDS011;37259;49.972;19.850;2023-05-17T06:05:50;4.2;;;2.1;;
51194;SDS011;37259;49.972;19.850;2023-05-17T06:06:50;3.7;;;2.3;;
51194;SDS011;37259;49.972;19.850;2023-05-17T06:07:50;3.7;;;2.3;;